sensor_id;sensor_type;location;lat;lon;timestamp;P1;durP1;ratioP1;P2;durP2;ratioP2
58808;SDS011;44579;51.672;7.834;2022-09-09T00:00:40;5.47;;;1.25;;
58808;SDS011;44579;51.672;7.834;2022-09-09T00:03:14;4.78;;;0.93;;
58808;SDS011;44579;51.672;7.834;2022-09-09T00:06:21;8.70;;;0.93;;
58808;SDS011;44579;51.672;7.834;2022-09-09T00:11:28;6.03;;;1.10;;
58808;SDS011;44579;51.672;7.834;2022-09-09T00:14:54;4.05;;;1.10;;
58808;SDS011;44579;51.672;7.834;2022-09-09T00:16:56;7.13;;;1.20;;
58808;SDS011;44579;51.672;7.834;2022-09-09T00:24:53;2.95;;;0.90;;
58808;SDS011;44579;51.672;7.834;2022-09-09T00:27:28;2.88;;;0.80;;
58808;SDS011;44579;51.672;7.834;2022-09-09T00:32:54;2.97;;;1.05;;
58808;SDS011;44579;51.672;7.834;2022-09-09T00:35:34;2.55;;;0.80;;
58808;SDS011;44579;51.672;7.834;2022-09-09T00:38:25;1.55;;;0.70;;
58808;SDS011;44579;51.672;7.834;2022-09-09T00:41:00;2.45;;;0.77;;
58808;SDS011;44579;51.672;7.834;2022-09-09T00:43:38;0.95;;;0.70;;
58808;SDS011;44579;51.672;7.834;2022-09-09T00:48:55;2.35;;;0.85;;
58808;SDS011;44579;51.672;7.834;2022-09-09T00:51:56;3.38;;;0.90;;
58808;SDS011;44579;51.672;7.834;2022-09-09T00:54:47;1.95;;;0.70;;
58808;SDS011;44579;51.672;7.834;2022-09-09T00:57:30;7.82;;;0.93;;
58808;SDS011;44579;51.672;7.834;2022-09-09T01:06:13;5.05;;;0.88;;
58808;SDS011;44579;51.672;7.834;2022-09-09T01:08:55;3.70;;;0.80;;
58808;SDS011;44579;51.672;7.834;2022-09-09T01:17:12;5.65;;;1.05;;
58808;SDS011;44579;51.672;7.834;2022-09-09T01:28:07;6.15;;;1.00;;
58808;SDS011;44579;51.672;7.834;2022-09-09T01:30:38;6.43;;;1.38;;
58808;SDS011;44579;51.672;7.834;2022-09-09T01:33:10;4.45;;;0.85;;
58808;SDS011;44579;51.672;7.834;2022-09-09T01:38:18;7.57;;;1.00;;
58808;SDS011;44579;51.672;7.834;2022-09-09T01:40:47;2.67;;;0.88;;
58808;SDS011;44579;51.672;7.834;2022-09-09T01:43:14;6.18;;;2.00;;
58808;SDS011;44579;51.672;7.834;2022-09-09T01:45:41;6.55;;;0.90;;
58808;SDS011;44579;51.672;7.834;2022-09-09T01:48:10;3.97;;;0.90;;
58808;SDS011;44579;51.672;7.834;2022-09-09T01:50:46;4.25;;;1.48;;
58808;SDS011;44579;51.672;7.834;2022-09-09T01:53:13;5.65;;;1.13;;
58808;SDS011;44579;51.672;7.834;2022-09-09T01:58:44;1.73;;;0.93;;
58808;SDS011;44579;51.672;7.834;2022-09-09T02:03:59;5.68;;;1.20;;
58808;SDS011;44579;51.672;7.834;2022-09-09T02:06:35;5.10;;;1.17;;
58808;SDS011;44579;51.672;7.834;2022-09-09T02:09:16;5.18;;;1.10;;
58808;SDS011;44579;51.672;7.834;2022-09-09T02:11:49;6.30;;;1.30;;
58808;SDS011;44579;51.672;7.834;2022-09-09T02:14:39;5.50;;;1.40;;
58808;SDS011;44579;51.672;7.834;2022-09-09T02:17:10;6.63;;;1.23;;
58808;SDS011;44579;51.672;7.834;2022-09-09T02:20:08;4.60;;;1.00;;
58808;SDS011;44579;51.672;7.834;2022-09-09T02:22:47;3.25;;;1.10;;
58808;SDS011;44579;51.672;7.834;2022-09-09T02:25:19;5.13;;;1.33;;
58808;SDS011;44579;51.672;7.834;2022-09-09T02:27:50;1.65;;;0.93;;
58808;SDS011;44579;51.672;7.834;2022-09-09T02:30:21;5.20;;;1.20;;
58808;SDS011;44579;51.672;7.834;2022-09-09T02:32:52;3.53;;;1.30;;
58808;SDS011;44579;51.672;7.834;2022-09-09T02:35:41;6.05;;;1.23;;
58808;SDS011;44579;51.672;7.834;2022-09-09T02:38:12;3.38;;;1.25;;
58808;SDS011;44579;51.672;7.834;2022-09-09T02:40:52;3.75;;;1.50;;
58808;SDS011;44579;51.672;7.834;2022-09-09T02:43:19;3.58;;;1.55;;
58808;SDS011;44579;51.672;7.834;2022-09-09T02:46:09;7.50;;;1.40;;
58808;SDS011;44579;51.672;7.834;2022-09-09T02:48:55;7.53;;;1.70;;
58808;SDS011;44579;51.672;7.834;2022-09-09T02:51:40;2.35;;;1.60;;
58808;SDS011;44579;51.672;7.834;2022-09-09T02:57:07;13.55;;;2.10;;
58808;SDS011;44579;51.672;7.834;2022-09-09T02:59:44;6.32;;;1.88;;
58808;SDS011;44579;51.672;7.834;2022-09-09T03:02:12;5.85;;;1.42;;
58808;SDS011;44579;51.672;7.834;2022-09-09T03:04:41;4.15;;;1.42;;
58808;SDS011;44579;51.672;7.834;2022-09-09T03:07:20;6.10;;;1.48;;
58808;SDS011;44579;51.672;7.834;2022-09-09T03:09:48;8.18;;;2.40;;
58808;SDS011;44579;51.672;7.834;2022-09-09T03:12:16;5.90;;;1.30;;
58808;SDS011;44579;51.672;7.834;2022-09-09T03:14:42;3.10;;;1.00;;
58808;SDS011;44579;51.672;7.834;2022-09-09T03:17:11;3.35;;;1.10;;
58808;SDS011;44579;51.672;7.834;2022-09-09T03:19:45;7.60;;;1.33;;
58808;SDS011;44579;51.672;7.834;2022-09-09T03:22:12;7.50;;;1.52;;
58808;SDS011;44579;51.672;7.834;2022-09-09T03:24:41;1.73;;;1.00;;
58808;SDS011;44579;51.672;7.834;2022-09-09T03:27:08;3.20;;;1.10;;
58808;SDS011;44579;51.672;7.834;2022-09-09T03:29:37;5.35;;;1.30;;
58808;SDS011;44579;51.672;7.834;2022-09-09T03:32:07;5.70;;;1.40;;
58808;SDS011;44579;51.672;7.834;2022-09-09T03:34:37;4.30;;;1.17;;
58808;SDS011;44579;51.672;7.834;2022-09-09T03:37:10;3.80;;;1.02;;
58808;SDS011;44579;51.672;7.834;2022-09-09T03:39:37;4.40;;;1.05;;
58808;SDS011;44579;51.672;7.834;2022-09-09T03:42:04;4.97;;;1.25;;
58808;SDS011;44579;51.672;7.834;2022-09-09T03:44:32;2.20;;;0.85;;
58808;SDS011;44579;51.672;7.834;2022-09-09T03:46:59;2.67;;;0.93;;
58808;SDS011;44579;51.672;7.834;2022-09-09T03:49:26;4.50;;;0.95;;
58808;SDS011;44579;51.672;7.834;2022-09-09T03:51:56;4.10;;;1.00;;
58808;SDS011;44579;51.672;7.834;2022-09-09T03:54:24;11.40;;;1.20;;
58808;SDS011;44579;51.672;7.834;2022-09-09T03:56:51;4.85;;;1.10;;
58808;SDS011;44579;51.672;7.834;2022-09-09T03:59:20;3.53;;;1.17;;
58808;SDS011;44579;51.672;7.834;2022-09-09T04:01:47;2.03;;;1.05;;
58808;SDS011;44579;51.672;7.834;2022-09-09T04:06:41;5.32;;;0.88;;
58808;SDS011;44579;51.672;7.834;2022-09-09T04:09:08;11.18;;;1.33;;
58808;SDS011;44579;51.672;7.834;2022-09-09T04:11:35;4.90;;;0.95;;
58808;SDS011;44579;51.672;7.834;2022-09-09T04:16:32;6.90;;;1.10;;
58808;SDS011;44579;51.672;7.834;2022-09-09T04:18:59;8.35;;;1.30;;
58808;SDS011;44579;51.672;7.834;2022-09-09T04:23:54;5.93;;;0.93;;
58808;SDS011;44579;51.672;7.834;2022-09-09T04:26:20;4.30;;;1.30;;
58808;SDS011;44579;51.672;7.834;2022-09-09T04:28:48;12.15;;;1.25;;
58808;SDS011;44579;51.672;7.834;2022-09-09T04:31:18;5.72;;;1.23;;
58808;SDS011;44579;51.672;7.834;2022-09-09T04:33:51;2.95;;;1.20;;
58808;SDS011;44579;51.672;7.834;2022-09-09T04:36:19;8.48;;;1.10;;
58808;SDS011;44579;51.672;7.834;2022-09-09T04:38:47;2.97;;;1.23;;
58808;SDS011;44579;51.672;7.834;2022-09-09T04:41:17;5.10;;;1.30;;
58808;SDS011;44579;51.672;7.834;2022-09-09T04:43:47;4.38;;;1.35;;
58808;SDS011;44579;51.672;7.834;2022-09-09T04:46:15;2.60;;;1.20;;
58808;SDS011;44579;51.672;7.834;2022-09-09T04:48:50;6.07;;;1.17;;
58808;SDS011;44579;51.672;7.834;2022-09-09T04:51:18;3.65;;;1.05;;
58808;SDS011;44579;51.672;7.834;2022-09-09T04:53:47;3.58;;;0.82;;
58808;SDS011;44579;51.672;7.834;2022-09-09T04:56:16;6.30;;;1.15;;
58808;SDS011;44579;51.672;7.834;2022-09-09T04:58:49;2.88;;;1.00;;
58808;SDS011;44579;51.672;7.834;2022-09-09T05:01:17;3.70;;;1.08;;
58808;SDS011;44579;51.672;7.834;2022-09-09T05:03:47;4.43;;;1.10;;
58808;SDS011;44579;51.672;7.834;2022-09-09T05:06:18;9.18;;;1.35;;
58808;SDS011;44579;51.672;7.834;2022-09-09T05:08:48;4.10;;;0.82;;
58808;SDS011;44579;51.672;7.834;2022-09-09T05:11:23;6.88;;;1.40;;
58808;SDS011;44579;51.672;7.834;2022-09-09T05:13:54;7.20;;;1.70;;
58808;SDS011;44579;51.672;7.834;2022-09-09T05:16:23;8.65;;;1.40;;
58808;SDS011;44579;51.672;7.834;2022-09-09T05:18:55;5.00;;;0.90;;
58808;SDS011;44579;51.672;7.834;2022-09-09T05:21:23;3.88;;;1.08;;
58808;SDS011;44579;51.672;7.834;2022-09-09T05:23:52;4.10;;;1.00;;
58808;SDS011;44579;51.672;7.834;2022-09-09T05:26:20;9.10;;;1.40;;
58808;SDS011;44579;51.672;7.834;2022-09-09T05:28:51;5.13;;;1.10;;
58808;SDS011;44579;51.672;7.834;2022-09-09T05:33:49;6.15;;;1.23;;
58808;SDS011;44579;51.672;7.834;2022-09-09T05:36:17;10.90;;;1.50;;
58808;SDS011;44579;51.672;7.834;2022-09-09T05:38:49;12.05;;;1.67;;
58808;SDS011;44579;51.672;7.834;2022-09-09T05:41:17;6.00;;;1.40;;
58808;SDS011;44579;51.672;7.834;2022-09-09T05:43:46;6.93;;;1.77;;
58808;SDS011;44579;51.672;7.834;2022-09-09T05:46:16;5.85;;;1.50;;
58808;SDS011;44579;51.672;7.834;2022-09-09T05:48:46;5.15;;;1.35;;
58808;SDS011;44579;51.672;7.834;2022-09-09T05:51:15;5.53;;;1.30;;
58808;SDS011;44579;51.672;7.834;2022-09-09T05:53:44;7.65;;;1.20;;
58808;SDS011;44579;51.672;7.834;2022-09-09T05:56:12;7.43;;;1.20;;
58808;SDS011;44579;51.672;7.834;2022-09-09T05:58:48;7.97;;;1.75;;
58808;SDS011;44579;51.672;7.834;2022-09-09T06:01:25;3.97;;;1.40;;
58808;SDS011;44579;51.672;7.834;2022-09-09T06:03:53;8.18;;;1.33;;
58808;SDS011;44579;51.672;7.834;2022-09-09T06:06:25;4.68;;;1.48;;
58808;SDS011;44579;51.672;7.834;2022-09-09T06:08:57;5.78;;;1.42;;
58808;SDS011;44579;51.672;7.834;2022-09-09T06:11:30;5.05;;;1.35;;
58808;SDS011;44579;51.672;7.834;2022-09-09T06:13:58;6.60;;;1.48;;
58808;SDS011;44579;51.672;7.834;2022-09-09T06:16:27;10.40;;;1.50;;
58808;SDS011;44579;51.672;7.834;2022-09-09T06:18:55;7.82;;;1.30;;
58808;SDS011;44579;51.672;7.834;2022-09-09T06:21:28;9.15;;;1.77;;
58808;SDS011;44579;51.672;7.834;2022-09-09T06:23:58;10.88;;;1.73;;
58808;SDS011;44579;51.672;7.834;2022-09-09T06:26:28;6.75;;;1.02;;
58808;SDS011;44579;51.672;7.834;2022-09-09T06:28:57;5.68;;;1.70;;
58808;SDS011;44579;51.672;7.834;2022-09-09T06:31:26;11.90;;;1.85;;
58808;SDS011;44579;51.672;7.834;2022-09-09T06:34:00;7.47;;;1.48;;
58808;SDS011;44579;51.672;7.834;2022-09-09T06:36:29;5.72;;;0.95;;
58808;SDS011;44579;51.672;7.834;2022-09-09T06:38:58;5.03;;;1.27;;
58808;SDS011;44579;51.672;7.834;2022-09-09T06:41:29;8.77;;;1.30;;
58808;SDS011;44579;51.672;7.834;2022-09-09T06:43:57;5.70;;;1.40;;
58808;SDS011;44579;51.672;7.834;2022-09-09T06:46:32;6.95;;;1.15;;
58808;SDS011;44579;51.672;7.834;2022-09-09T06:51:27;5.00;;;1.45;;
58808;SDS011;44579;51.672;7.834;2022-09-09T06:54:00;6.55;;;1.30;;
58808;SDS011;44579;51.672;7.834;2022-09-09T06:56:30;7.75;;;1.38;;
58808;SDS011;44579;51.672;7.834;2022-09-09T06:59:06;4.95;;;1.52;;
58808;SDS011;44579;51.672;7.834;2022-09-09T07:01:36;12.45;;;2.03;;
58808;SDS011;44579;51.672;7.834;2022-09-09T07:04:09;5.78;;;1.33;;
58808;SDS011;44579;51.672;7.834;2022-09-09T07:06:40;5.47;;;1.10;;
58808;SDS011;44579;51.672;7.834;2022-09-09T07:09:12;4.05;;;0.90;;
58808;SDS011;44579;51.672;7.834;2022-09-09T07:11:46;4.85;;;1.42;;
58808;SDS011;44579;51.672;7.834;2022-09-09T07:14:15;6.55;;;1.38;;
58808;SDS011;44579;51.672;7.834;2022-09-09T07:16:46;4.05;;;1.25;;
58808;SDS011;44579;51.672;7.834;2022-09-09T07:19:15;8.43;;;1.52;;
58808;SDS011;44579;51.672;7.834;2022-09-09T07:21:44;6.45;;;1.33;;
58808;SDS011;44579;51.672;7.834;2022-09-09T07:24:14;5.70;;;0.98;;
58808;SDS011;44579;51.672;7.834;2022-09-09T07:26:42;8.10;;;1.38;;
58808;SDS011;44579;51.672;7.834;2022-09-09T07:29:11;2.97;;;0.90;;
58808;SDS011;44579;51.672;7.834;2022-09-09T07:31:46;7.47;;;1.27;;
58808;SDS011;44579;51.672;7.834;2022-09-09T07:34:17;11.05;;;1.08;;
58808;SDS011;44579;51.672;7.834;2022-09-09T07:36:44;6.82;;;1.40;;
58808;SDS011;44579;51.672;7.834;2022-09-09T07:39:13;2.95;;;0.77;;
58808;SDS011;44579;51.672;7.834;2022-09-09T07:41:46;8.23;;;1.10;;
58808;SDS011;44579;51.672;7.834;2022-09-09T07:44:17;6.28;;;1.25;;
58808;SDS011;44579;51.672;7.834;2022-09-09T07:46:50;5.55;;;1.02;;
58808;SDS011;44579;51.672;7.834;2022-09-09T07:49:22;2.65;;;1.13;;
58808;SDS011;44579;51.672;7.834;2022-09-09T07:51:58;8.30;;;1.20;;
58808;SDS011;44579;51.672;7.834;2022-09-09T07:54:25;5.57;;;1.35;;
58808;SDS011;44579;51.672;7.834;2022-09-09T07:56:52;7.60;;;1.00;;
58808;SDS011;44579;51.672;7.834;2022-09-09T07:59:22;4.28;;;0.90;;
58808;SDS011;44579;51.672;7.834;2022-09-09T08:01:52;2.00;;;0.80;;
58808;SDS011;44579;51.672;7.834;2022-09-09T08:04:26;7.00;;;0.82;;
58808;SDS011;44579;51.672;7.834;2022-09-09T08:06:58;11.98;;;1.67;;
58808;SDS011;44579;51.672;7.834;2022-09-09T08:09:28;4.53;;;1.40;;
58808;SDS011;44579;51.672;7.834;2022-09-09T08:12:03;3.08;;;0.73;;
58808;SDS011;44579;51.672;7.834;2022-09-09T08:14:32;3.85;;;1.67;;
58808;SDS011;44579;51.672;7.834;2022-09-09T08:16:59;3.97;;;0.90;;
58808;SDS011;44579;51.672;7.834;2022-09-09T08:19:27;7.68;;;1.00;;
58808;SDS011;44579;51.672;7.834;2022-09-09T08:21:57;4.63;;;0.98;;
58808;SDS011;44579;51.672;7.834;2022-09-09T08:24:24;2.38;;;0.82;;
58808;SDS011;44579;51.672;7.834;2022-09-09T08:26:52;7.95;;;1.27;;
58808;SDS011;44579;51.672;7.834;2022-09-09T08:29:22;4.60;;;0.95;;
58808;SDS011;44579;51.672;7.834;2022-09-09T08:31:52;5.20;;;1.15;;
58808;SDS011;44579;51.672;7.834;2022-09-09T08:34:20;3.75;;;0.85;;
58808;SDS011;44579;51.672;7.834;2022-09-09T08:36:49;3.33;;;0.80;;
58808;SDS011;44579;51.672;7.834;2022-09-09T08:39:20;5.05;;;0.98;;
58808;SDS011;44579;51.672;7.834;2022-09-09T08:50:15;5.32;;;1.20;;
58808;SDS011;44579;51.672;7.834;2022-09-09T08:53:38;6.53;;;1.17;;
58808;SDS011;44579;51.672;7.834;2022-09-09T08:58:08;6.35;;;1.48;;
58808;SDS011;44579;51.672;7.834;2022-09-09T09:09:55;6.07;;;1.83;;
58808;SDS011;44579;51.672;7.834;2022-09-09T09:19:20;7.20;;;0.95;;
58808;SDS011;44579;51.672;7.834;2022-09-09T09:22:32;3.33;;;0.82;;
58808;SDS011;44579;51.672;7.834;2022-09-09T09:27:52;2.38;;;0.73;;
58808;SDS011;44579;51.672;7.834;2022-09-09T09:30:42;6.70;;;0.80;;
58808;SDS011;44579;51.672;7.834;2022-09-09T09:33:18;7.45;;;1.10;;
58808;SDS011;44579;51.672;7.834;2022-09-09T09:35:59;7.25;;;0.90;;
58808;SDS011;44579;51.672;7.834;2022-09-09T09:38:35;12.02;;;1.00;;
58808;SDS011;44579;51.672;7.834;2022-09-09T09:44:42;3.47;;;1.20;;
58808;SDS011;44579;51.672;7.834;2022-09-09T09:47:16;4.43;;;0.70;;
58808;SDS011;44579;51.672;7.834;2022-09-09T09:49:54;11.43;;;1.33;;
58808;SDS011;44579;51.672;7.834;2022-09-09T09:52:24;3.15;;;1.15;;
58808;SDS011;44579;51.672;7.834;2022-09-09T09:55:02;7.03;;;1.10;;
58808;SDS011;44579;51.672;7.834;2022-09-09T09:57:33;5.50;;;0.80;;
58808;SDS011;44579;51.672;7.834;2022-09-09T10:00:19;7.78;;;0.90;;
58808;SDS011;44579;51.672;7.834;2022-09-09T10:03:01;4.68;;;1.33;;
58808;SDS011;44579;51.672;7.834;2022-09-09T10:05:46;4.28;;;0.93;;
58808;SDS011;44579;51.672;7.834;2022-09-09T10:08:15;3.80;;;0.90;;
58808;SDS011;44579;51.672;7.834;2022-09-09T10:13:50;4.28;;;0.90;;
58808;SDS011;44579;51.672;7.834;2022-09-09T10:16:45;10.10;;;1.13;;
58808;SDS011;44579;51.672;7.834;2022-09-09T10:19:37;2.10;;;0.70;;
58808;SDS011;44579;51.672;7.834;2022-09-09T10:22:21;7.43;;;1.20;;
58808;SDS011;44579;51.672;7.834;2022-09-09T10:27:51;6.78;;;0.68;;
58808;SDS011;44579;51.672;7.834;2022-09-09T10:33:32;3.25;;;0.90;;
58808;SDS011;44579;51.672;7.834;2022-09-09T10:36:07;9.73;;;0.90;;
58808;SDS011;44579;51.672;7.834;2022-09-09T10:38:47;3.38;;;1.00;;
58808;SDS011;44579;51.672;7.834;2022-09-09T10:41:23;9.07;;;1.95;;
58808;SDS011;44579;51.672;7.834;2022-09-09T10:46:46;4.97;;;0.68;;
58808;SDS011;44579;51.672;7.834;2022-09-09T10:52:43;6.40;;;1.00;;
58808;SDS011;44579;51.672;7.834;2022-09-09T10:55:16;5.05;;;0.80;;
58808;SDS011;44579;51.672;7.834;2022-09-09T10:57:46;3.80;;;0.82;;
58808;SDS011;44579;51.672;7.834;2022-09-09T11:00:20;2.60;;;0.70;;
58808;SDS011;44579;51.672;7.834;2022-09-09T11:02:55;8.25;;;1.38;;
58808;SDS011;44579;51.672;7.834;2022-09-09T11:05:27;5.20;;;1.23;;
58808;SDS011;44579;51.672;7.834;2022-09-09T11:13:36;3.38;;;0.60;;
58808;SDS011;44579;51.672;7.834;2022-09-09T11:16:25;4.63;;;0.98;;
58808;SDS011;44579;51.672;7.834;2022-09-09T11:19:10;5.43;;;0.80;;
58808;SDS011;44579;51.672;7.834;2022-09-09T11:21:42;2.35;;;0.70;;
58808;SDS011;44579;51.672;7.834;2022-09-09T11:24:14;7.90;;;0.60;;
58808;SDS011;44579;51.672;7.834;2022-09-09T11:29:50;6.22;;;1.08;;
58808;SDS011;44579;51.672;7.834;2022-09-09T11:32:43;6.53;;;1.30;;
58808;SDS011;44579;51.672;7.834;2022-09-09T11:38:58;8.48;;;0.98;;
58808;SDS011;44579;51.672;7.834;2022-09-09T11:41:46;5.93;;;0.90;;
58808;SDS011;44579;51.672;7.834;2022-09-09T11:44:16;3.10;;;0.85;;
58808;SDS011;44579;51.672;7.834;2022-09-09T11:46:50;2.85;;;0.70;;
58808;SDS011;44579;51.672;7.834;2022-09-09T11:50:06;0.30;;;0.30;;
58808;SDS011;44579;51.672;7.834;2022-09-09T11:53:02;6.32;;;0.80;;
58808;SDS011;44579;51.672;7.834;2022-09-09T11:55:37;3.00;;;0.80;;
58808;SDS011;44579;51.672;7.834;2022-09-09T12:00:40;8.25;;;1.05;;
58808;SDS011;44579;51.672;7.834;2022-09-09T12:03:35;3.15;;;0.57;;
58808;SDS011;44579;51.672;7.834;2022-09-09T12:06:13;5.43;;;0.98;;
58808;SDS011;44579;51.672;7.834;2022-09-09T12:08:48;2.50;;;0.77;;
58808;SDS011;44579;51.672;7.834;2022-09-09T12:11:28;6.78;;;1.10;;
58808;SDS011;44579;51.672;7.834;2022-09-09T12:13:57;4.15;;;0.75;;
58808;SDS011;44579;51.672;7.834;2022-09-09T12:16:28;3.75;;;0.60;;
58808;SDS011;44579;51.672;7.834;2022-09-09T12:19:03;2.35;;;0.55;;
58808;SDS011;44579;51.672;7.834;2022-09-09T12:26:57;1.58;;;0.43;;
58808;SDS011;44579;51.672;7.834;2022-09-09T12:32:23;3.72;;;0.80;;
58808;SDS011;44579;51.672;7.834;2022-09-09T12:34:59;5.38;;;0.75;;
58808;SDS011;44579;51.672;7.834;2022-09-09T12:40:06;6.80;;;0.70;;
58808;SDS011;44579;51.672;7.834;2022-09-09T12:42:47;2.35;;;0.80;;
58808;SDS011;44579;51.672;7.834;2022-09-09T12:47:53;7.25;;;0.68;;
58808;SDS011;44579;51.672;7.834;2022-09-09T12:50:27;4.40;;;0.65;;
58808;SDS011;44579;51.672;7.834;2022-09-09T12:52:59;3.42;;;0.68;;
58808;SDS011;44579;51.672;7.834;2022-09-09T12:55:31;1.60;;;0.75;;
58808;SDS011;44579;51.672;7.834;2022-09-09T12:58:01;7.57;;;1.27;;
58808;SDS011;44579;51.672;7.834;2022-09-09T13:00:33;6.53;;;1.05;;
58808;SDS011;44579;51.672;7.834;2022-09-09T13:03:02;1.73;;;0.30;;
58808;SDS011;44579;51.672;7.834;2022-09-09T13:05:42;1.58;;;0.68;;
58808;SDS011;44579;51.672;7.834;2022-09-09T13:08:10;2.38;;;0.60;;
58808;SDS011;44579;51.672;7.834;2022-09-09T13:10:46;2.85;;;0.73;;
58808;SDS011;44579;51.672;7.834;2022-09-09T13:13:28;2.42;;;0.70;;
58808;SDS011;44579;51.672;7.834;2022-09-09T13:16:01;2.72;;;0.88;;
58808;SDS011;44579;51.672;7.834;2022-09-09T13:18:31;2.42;;;0.50;;
58808;SDS011;44579;51.672;7.834;2022-09-09T13:21:04;3.17;;;0.73;;
58808;SDS011;44579;51.672;7.834;2022-09-09T13:23:32;2.05;;;0.45;;
58808;SDS011;44579;51.672;7.834;2022-09-09T13:26:02;0.95;;;0.65;;
58808;SDS011;44579;51.672;7.834;2022-09-09T13:28:50;2.55;;;0.60;;
58808;SDS011;44579;51.672;7.834;2022-09-09T13:31:37;4.55;;;0.80;;
58808;SDS011;44579;51.672;7.834;2022-09-09T13:34:10;3.60;;;0.82;;
58808;SDS011;44579;51.672;7.834;2022-09-09T13:36:55;12.05;;;1.08;;
58808;SDS011;44579;51.672;7.834;2022-09-09T13:39:29;3.53;;;1.00;;
58808;SDS011;44579;51.672;7.834;2022-09-09T13:41:56;3.63;;;0.98;;
58808;SDS011;44579;51.672;7.834;2022-09-09T13:44:24;4.88;;;0.70;;
58808;SDS011;44579;51.672;7.834;2022-09-09T13:47:01;1.25;;;0.40;;
58808;SDS011;44579;51.672;7.834;2022-09-09T13:49:34;2.78;;;0.52;;
58808;SDS011;44579;51.672;7.834;2022-09-09T13:52:20;3.60;;;0.40;;
58808;SDS011;44579;51.672;7.834;2022-09-09T13:54:48;1.85;;;0.50;;
58808;SDS011;44579;51.672;7.834;2022-09-09T13:57:18;3.35;;;0.60;;
58808;SDS011;44579;51.672;7.834;2022-09-09T13:59:47;2.00;;;0.60;;
58808;SDS011;44579;51.672;7.834;2022-09-09T14:02:31;3.65;;;0.75;;
58808;SDS011;44579;51.672;7.834;2022-09-09T14:05:00;2.05;;;0.55;;
58808;SDS011;44579;51.672;7.834;2022-09-09T14:07:27;1.77;;;0.57;;
58808;SDS011;44579;51.672;7.834;2022-09-09T14:09:54;1.52;;;0.57;;
58808;SDS011;44579;51.672;7.834;2022-09-09T14:12:21;3.05;;;0.70;;
58808;SDS011;44579;51.672;7.834;2022-09-09T14:14:47;4.47;;;0.70;;
58808;SDS011;44579;51.672;7.834;2022-09-09T14:17:14;9.98;;;1.05;;
58808;SDS011;44579;51.672;7.834;2022-09-09T14:19:41;3.53;;;0.70;;
58808;SDS011;44579;51.672;7.834;2022-09-09T14:22:09;4.05;;;0.80;;
58808;SDS011;44579;51.672;7.834;2022-09-09T14:24:35;5.15;;;0.60;;
58808;SDS011;44579;51.672;7.834;2022-09-09T14:27:02;5.63;;;0.70;;
58808;SDS011;44579;51.672;7.834;2022-09-09T14:29:29;2.60;;;0.70;;
58808;SDS011;44579;51.672;7.834;2022-09-09T14:31:56;3.47;;;0.70;;
58808;SDS011;44579;51.672;7.834;2022-09-09T14:34:22;2.63;;;0.77;;
58808;SDS011;44579;51.672;7.834;2022-09-09T14:36:49;2.88;;;0.57;;
58808;SDS011;44579;51.672;7.834;2022-09-09T14:39:17;5.65;;;0.80;;
58808;SDS011;44579;51.672;7.834;2022-09-09T14:41:44;4.05;;;0.70;;
58808;SDS011;44579;51.672;7.834;2022-09-09T14:44:11;3.25;;;0.73;;
58808;SDS011;44579;51.672;7.834;2022-09-09T14:46:38;3.90;;;0.77;;
58808;SDS011;44579;51.672;7.834;2022-09-09T14:49:05;3.13;;;0.60;;
58808;SDS011;44579;51.672;7.834;2022-09-09T14:51:31;3.97;;;0.80;;
58808;SDS011;44579;51.672;7.834;2022-09-09T14:53:59;2.30;;;0.70;;
58808;SDS011;44579;51.672;7.834;2022-09-09T14:58:54;2.97;;;0.75;;
58808;SDS011;44579;51.672;7.834;2022-09-09T15:01:22;1.77;;;0.70;;
58808;SDS011;44579;51.672;7.834;2022-09-09T15:03:50;4.07;;;0.90;;
58808;SDS011;44579;51.672;7.834;2022-09-09T15:06:22;4.13;;;0.85;;
58808;SDS011;44579;51.672;7.834;2022-09-09T15:08:50;2.60;;;0.90;;
58808;SDS011;44579;51.672;7.834;2022-09-09T15:11:18;4.10;;;0.75;;
58808;SDS011;44579;51.672;7.834;2022-09-09T15:13:46;2.05;;;0.77;;
58808;SDS011;44579;51.672;7.834;2022-09-09T15:16:17;2.33;;;0.73;;
58808;SDS011;44579;51.672;7.834;2022-09-09T15:18:45;3.13;;;0.73;;
58808;SDS011;44579;51.672;7.834;2022-09-09T15:21:15;3.80;;;0.73;;
58808;SDS011;44579;51.672;7.834;2022-09-09T15:23:45;4.60;;;0.75;;
58808;SDS011;44579;51.672;7.834;2022-09-09T15:26:13;3.80;;;0.70;;
58808;SDS011;44579;51.672;7.834;2022-09-09T15:33:50;2.20;;;0.45;;
58808;SDS011;44579;51.672;7.834;2022-09-09T15:36:19;2.53;;;0.80;;
58808;SDS011;44579;51.672;7.834;2022-09-09T15:38:48;2.35;;;0.52;;
58808;SDS011;44579;51.672;7.834;2022-09-09T15:41:19;7.43;;;0.63;;
58808;SDS011;44579;51.672;7.834;2022-09-09T15:43:51;3.58;;;0.70;;
58808;SDS011;44579;51.672;7.834;2022-09-09T15:46:21;5.28;;;0.73;;
58808;SDS011;44579;51.672;7.834;2022-09-09T15:51:55;0.60;;;0.40;;
58808;SDS011;44579;51.672;7.834;2022-09-09T15:54:24;0.88;;;0.40;;
58808;SDS011;44579;51.672;7.834;2022-09-09T15:56:53;2.60;;;0.70;;
58808;SDS011;44579;51.672;7.834;2022-09-09T15:59:22;2.45;;;0.90;;
58808;SDS011;44579;51.672;7.834;2022-09-09T16:01:50;2.55;;;0.35;;
58808;SDS011;44579;51.672;7.834;2022-09-09T16:04:18;2.92;;;0.60;;
58808;SDS011;44579;51.672;7.834;2022-09-09T16:06:50;4.38;;;0.73;;
58808;SDS011;44579;51.672;7.834;2022-09-09T16:09:21;4.53;;;0.93;;
58808;SDS011;44579;51.672;7.834;2022-09-09T16:11:48;2.42;;;0.60;;
58808;SDS011;44579;51.672;7.834;2022-09-09T16:14:14;2.05;;;0.60;;
58808;SDS011;44579;51.672;7.834;2022-09-09T16:16:42;2.35;;;0.63;;
58808;SDS011;44579;51.672;7.834;2022-09-09T16:19:10;1.70;;;0.50;;
58808;SDS011;44579;51.672;7.834;2022-09-09T16:21:39;4.45;;;0.60;;
58808;SDS011;44579;51.672;7.834;2022-09-09T16:24:11;1.90;;;0.75;;
58808;SDS011;44579;51.672;7.834;2022-09-09T16:26:44;3.72;;;0.35;;
58808;SDS011;44579;51.672;7.834;2022-09-09T16:29:16;0.80;;;0.40;;
58808;SDS011;44579;51.672;7.834;2022-09-09T16:31:44;3.45;;;0.50;;
58808;SDS011;44579;51.672;7.834;2022-09-09T16:34:13;0.52;;;0.40;;
58808;SDS011;44579;51.672;7.834;2022-09-09T16:36:42;1.38;;;0.68;;
58808;SDS011;44579;51.672;7.834;2022-09-09T16:39:13;1.20;;;0.30;;
58808;SDS011;44579;51.672;7.834;2022-09-09T16:41:42;0.20;;;0.20;;
58808;SDS011;44579;51.672;7.834;2022-09-09T16:44:11;1.10;;;0.30;;
58808;SDS011;44579;51.672;7.834;2022-09-09T16:46:40;0.35;;;0.28;;
58808;SDS011;44579;51.672;7.834;2022-09-09T16:49:11;0.70;;;0.30;;
58808;SDS011;44579;51.672;7.834;2022-09-09T16:51:40;1.10;;;0.60;;
58808;SDS011;44579;51.672;7.834;2022-09-09T16:54:19;3.60;;;0.50;;
58808;SDS011;44579;51.672;7.834;2022-09-09T16:56:48;1.52;;;0.50;;
58808;SDS011;44579;51.672;7.834;2022-09-09T16:59:18;2.88;;;0.50;;
58808;SDS011;44579;51.672;7.834;2022-09-09T17:01:47;1.95;;;0.40;;
58808;SDS011;44579;51.672;7.834;2022-09-09T17:04:26;1.30;;;0.50;;
58808;SDS011;44579;51.672;7.834;2022-09-09T17:06:54;1.27;;;0.55;;
58808;SDS011;44579;51.672;7.834;2022-09-09T17:09:24;4.40;;;0.70;;
58808;SDS011;44579;51.672;7.834;2022-09-09T17:11:55;1.00;;;0.55;;
58808;SDS011;44579;51.672;7.834;2022-09-09T17:14:22;2.33;;;0.60;;
58808;SDS011;44579;51.672;7.834;2022-09-09T17:16:49;3.05;;;0.70;;
58808;SDS011;44579;51.672;7.834;2022-09-09T17:19:16;2.95;;;0.60;;
58808;SDS011;44579;51.672;7.834;2022-09-09T17:21:43;3.45;;;0.73;;
58808;SDS011;44579;51.672;7.834;2022-09-09T17:24:33;2.22;;;0.90;;
58808;SDS011;44579;51.672;7.834;2022-09-09T17:27:00;4.03;;;0.80;;
58808;SDS011;44579;51.672;7.834;2022-09-09T17:29:28;2.47;;;0.75;;
58808;SDS011;44579;51.672;7.834;2022-09-09T17:31:55;2.28;;;0.70;;
58808;SDS011;44579;51.672;7.834;2022-09-09T17:34:22;3.38;;;0.60;;
58808;SDS011;44579;51.672;7.834;2022-09-09T17:36:50;1.50;;;0.80;;
58808;SDS011;44579;51.672;7.834;2022-09-09T17:39:17;6.07;;;1.08;;
58808;SDS011;44579;51.672;7.834;2022-09-09T17:41:44;5.88;;;1.00;;
58808;SDS011;44579;51.672;7.834;2022-09-09T17:44:11;3.13;;;0.80;;